Augusta, New York
Current Conditions -  °F | °C
As of 9:53 AM on Monday 22 Dec 2014 (Local Time) from KRME Reporting Station
Overcast Overcast  
Wind Chill: 25°   Ceiling: 2700
Heat Index: 32°   Visibility: 10mi
Dew Point: 25°   Wind: 8mph
Humidity: 75%   Direction: 120°ESE
Pressure: 30.33"   Gusts: NA
Location:  42.9771°N, 75.5023°W
Report Text: KRME 221453Z 12007KT 10SM OVC027 00/M04 A3033 RMK AO2 SLP276 T00001039 53004
Loading
Personal Weather Stations






























Interactive Weather Map New forecast layout! Learn more

10-Day Weather Forecast

Advertisements
Track Severe Weather on mobile